Time;durP1;ratioP1;P1;durP2;ratioP2;P2;SDS_P1;SDS_P2;PMS_P1;PMS_P2;Temp;Humidity;BMP_temperature;BMP_pressure;BME280_temperature;BME280_humidity;BME280_pressure;Samples;Min_cycle;Max_cycle;Signal;HPM_P1;HPM_P2
2022/12/27 01:24:38;;;;;;;;;;;;;;;;;;;;;
2022/12/27 02:03:57;;;;;;;11.02;8.27;;;;;;;13.82;85.49;101724.31;12043710;23;97570;-78
2022/12/27 02:22:07;;;;;;;14.43;9.20;;;;;;;13.68;85.62;101730.00;12359375;23;97774;-78
2022/12/27 02:27:55;;;;;;;12.43;9.52;;;;;;;13.73;85.38;101740.44;12470893;23;97405;-77
2022/12/27 03:07:25;;;;;;;12.98;9.85;;;;;;;13.81;84.95;101758.75;12591503;23;97091;-78
2022/12/27 03:18:08;;;;;;;14.40;10.10;;;;;;;13.79;85.39;101753.50;12568827;22;97200;-78
2022/12/27 03:39:38;;;;;;;16.00;12.02;;;;;;;13.69;85.78;101750.25;12722837;22;97293;-78
2022/12/27 04:03:18;;;;;;;14.98;11.23;;;;;;;13.95;85.18;101762.72;12007292;23;97349;-78
2022/12/27 04:35:17;;;;;;;13.25;10.27;;;;;;;13.86;85.28;101757.72;12559075;22;97293;-78
2022/12/27 04:56:23;;;;;;;12.57;9.63;;;;;;;13.89;84.74;101751.44;12724250;22;97027;-78
2022/12/27 05:06:54;;;;;;;14.73;9.65;;;;;;;13.76;85.04;101750.09;12721712;22;97176;-78
2022/12/27 05:17:24;;;;;;;13.75;10.00;;;;;;;13.80;84.85;101752.59;12722503;22;97321;-78
2022/12/27 05:29:07;;;;;;;16.00;10.15;;;;;;;13.83;84.77;101762.22;12515483;23;97345;-77
2022/12/27 06:31:24;;;;;;;13.18;9.15;;;;;;;13.59;85.31;101775.22;12850466;22;97199;-77
2022/12/27 06:37:03;;;;;;;12.65;8.35;;;;;;;13.63;85.14;101776.88;12853471;22;97090;-76
2022/12/27 07:17:52;;;;;;;11.30;7.20;;;;;;;13.64;84.90;101825.34;12034515;24;96934;-77
2022/12/27 07:35:51;;;;;;;12.13;7.95;;;;;;;13.77;84.86;101823.22;12858861;22;96707;-78
2022/12/27 07:41:45;;;;;;;10.32;7.45;;;;;;;13.80;84.81;101826.66;12601798;23;97512;-78
2022/12/27 07:46:56;;;;;;;12.52;7.93;;;;;;;13.75;85.25;101817.13;12504157;23;97405;-76
2022/12/27 07:52:11;;;;;;;11.27;7.13;;;;;;;13.69;85.31;101826.97;12603863;23;96755;-77
2022/12/27 07:57:29;;;;;;;12.35;8.18;;;;;;;13.71;85.08;101832.19;12606518;23;96839;-76
2022/12/27 08:02:58;;;;;;;10.88;7.25;;;;;;;13.72;85.13;101828.66;12608565;23;96768;-76
2022/12/27 08:14:07;;;;;;;;;;;;;;;;;;;;;
2022/12/27 08:20:10;;;;;;;;;;;;;;;;;;;;;
2022/12/27 08:50:01;;;;;;;9.25;7.07;;;;;;;13.89;84.87;101874.06;12182450;23;97198;-78
2022/12/27 09:02:21;;;;;;;;;;;;;;;;;;;;;
2022/12/27 09:14:36;;;;;;;10.88;6.30;;;;;;;14.01;84.69;101899.28;12545498;23;97253;-78
2022/12/27 09:20:14;;;;;;;;;;;;;;;;;;;;;
2022/12/27 09:32:01;;;;;;;9.80;6.03;;;;;;;13.91;84.76;101904.00;12111423;23;97046;-77
2022/12/27 09:50:13;;;;;;;7.95;5.47;;;;;;;13.91;84.84;101924.28;12274736;23;97237;-77
2022/12/27 10:08:23;;;;;;;8.10;5.43;;;;;;;14.25;83.94;101922.47;12655256;23;96796;-78
2022/12/27 10:14:05;;;;;;;37.50;28.05;;;;;;;14.22;84.08;101933.16;12483837;23;97115;-75
2022/12/27 10:19:23;;;;;;;142.77;107.20;;;;;;;14.27;83.83;101933.91;12480734;23;97574;-76
2022/12/27 12:32:56;;;;;;;10.82;8.32;;;;;;;15.82;77.96;101809.56;12845525;22;99727;-80
2022/12/27 12:44:34;;;;;;;13.93;9.02;;;;;;;15.71;78.82;101777.22;12844856;22;96826;-80
2022/12/27 12:50:21;;;;;;;10.68;9.10;;;;;;;15.64;79.58;101763.31;12863798;22;97142;-78
2022/12/27 12:55:39;;;;;;;12.85;9.70;;;;;;;15.83;79.50;101751.09;12860379;22;96935;-79
2022/12/27 13:00:57;;;;;;;11.65;9.95;;;;;;;16.05;79.24;101739.69;12861202;22;96821;-80
2022/12/27 13:06:15;;;;;;;12.90;9.15;;;;;;;16.00;79.61;101741.63;12863499;22;96846;-80
2022/12/27 13:11:35;;;;;;;14.75;10.43;;;;;;;15.86;80.03;101740.34;12862745;22;97179;-84
2022/12/27 13:16:50;;;;;;;16.00;11.05;;;;;;;15.81;79.95;101738.78;12861254;22;96896;-83
2022/12/27 13:22:12;;;;;;;11.55;10.00;;;;;;;15.80;79.82;101729.97;12850123;22;97121;-83
2022/12/27 13:27:26;;;;;;;14.05;10.30;;;;;;;16.28;79.84;101719.25;12847418;22;97135;-83
2022/12/27 13:32:48;;;;;;;11.50;9.30;;;;;;;16.12;79.64;101725.22;12847592;22;97479;-83
2022/12/27 13:38:07;;;;;;;12.25;9.52;;;;;;;16.18;79.53;101717.00;12851398;22;97090;-80
2022/12/27 13:43:35;;;;;;;14.77;9.52;;;;;;;16.35;79.10;101715.44;12849407;22;97251;-83
2022/12/27 13:48:59;;;;;;;11.10;8.82;;;;;;;16.45;78.42;101711.50;12824743;22;97387;-83
2022/12/27 13:54:30;;;;;;;12.60;8.88;;;;;;;16.41;78.74;101706.38;12849709;22;97199;-82
2022/12/27 13:59:58;;;;;;;12.95;8.85;;;;;;;16.53;79.16;101701.41;12850777;22;97258;-80
2022/12/27 14:05:43;;;;;;;12.70;9.35;;;;;;;16.48;78.26;101694.56;12847642;22;97156;-84
2022/12/27 14:10:53;;;;;;;13.80;8.88;;;;;;;16.54;78.87;101705.81;12855290;22;97284;-84
2022/12/27 14:16:31;;;;;;;13.73;9.35;;;;;;;16.22;79.84;101695.56;12848480;22;96990;-84
2022/12/27 14:22:05;;;;;;;13.25;9.75;;;;;;;16.14;79.55;101689.72;12850371;22;97152;-84
2022/12/27 14:28:04;;;;;;;12.48;8.80;;;;;;;16.11;79.98;101696.94;12848101;22;97171;-85
2022/12/27 14:33:43;;;;;;;16.17;9.70;;;;;;;16.11;80.09;101692.50;12783095;22;96742;-85
2022/12/27 14:39:33;;;;;;;15.73;11.18;;;;;;;16.11;79.81;101695.16;12849324;22;96788;-85
2022/12/27 14:45:08;;;;;;;19.08;11.73;;;;;;;16.30;80.35;101696.16;12694664;22;97223;-84
2022/12/27 14:51:18;;;;;;;16.65;11.77;;;;;;;17.16;78.43;101700.47;12848436;22;97220;-85
2022/12/27 14:57:05;;;;;;;13.90;10.90;;;;;;;16.80;79.16;101700.28;12845400;22;97032;-86
2022/12/27 15:02:33;;;;;;;15.43;10.95;;;;;;;16.62;79.89;101701.03;12850003;22;97202;-86
2022/12/27 15:08:00;;;;;;;15.13;11.07;;;;;;;16.45;80.49;101700.00;12848032;22;97313;-86
2022/12/27 15:13:14;;;;;;;16.92;12.68;;;;;;;16.34;81.43;101694.22;12851894;22;97028;-85
2022/12/27 15:18:41;;;;;;;17.83;12.67;;;;;;;16.13;81.45;101695.09;12855211;22;97115;-84
2022/12/27 15:24:03;;;;;;;18.23;13.50;;;;;;;16.00;82.18;101699.13;12846932;22;97201;-84
2022/12/27 15:29:36;;;;;;;17.10;13.07;;;;;;;16.13;82.03;101698.63;12847382;22;96953;-85
2022/12/27 15:35:06;;;;;;;17.52;12.57;;;;;;;16.23;81.58;101696.44;12848184;22;97185;-85
2022/12/27 15:40:25;;;;;;;15.23;11.93;;;;;;;16.32;81.63;101693.44;12852304;22;97085;-82
2022/12/27 15:45:46;;;;;;;17.60;12.40;;;;;;;16.36;81.40;101697.69;12863393;22;96596;-83
2022/12/27 15:50:59;;;;;;;20.58;12.55;;;;;;;16.38;81.58;101694.03;12864482;22;96580;-83
2022/12/27 15:56:22;;;;;;;19.42;13.68;;;;;;;16.39;82.04;101708.19;12863361;22;96424;-83
2022/12/27 16:01:30;;;;;;;21.17;13.25;;;;;;;16.39;81.92;101706.41;12864179;22;96636;-85
2022/12/27 16:06:55;;;;;;;20.50;13.82;;;;;;;16.25;82.22;101705.22;12862433;22;96506;-84
2022/12/27 16:12:34;;;;;;;16.45;11.93;;;;;;;16.23;82.27;101699.97;12863022;22;96539;-84
2022/12/27 16:17:59;;;;;;;16.83;11.77;;;;;;;16.25;82.58;101706.09;12861452;22;96834;-84
2022/12/27 16:23:06;;;;;;;17.83;13.17;;;;;;;16.27;82.80;101704.22;12862311;22;97199;-84
2022/12/27 16:28:22;;;;;;;19.35;13.93;;;;;;;16.25;82.23;101710.53;12862791;22;96596;-84
2022/12/27 16:33:40;;;;;;;20.15;14.27;;;;;;;16.18;83.17;101703.72;12861766;22;96623;-84
2022/12/27 16:38:49;;;;;;;22.42;14.40;;;;;;;16.17;83.14;101707.34;12860800;22;96493;-87
2022/12/27 16:44:05;;;;;;;16.08;11.30;;;;;;;16.10;82.76;101700.53;12861371;22;97065;-84
2022/12/27 16:49:46;;;;;;;20.55;13.60;;;;;;;15.98;83.52;101704.50;12862102;22;96838;-84
2022/12/27 16:55:05;;;;;;;21.77;15.43;;;;;;;15.93;83.50;101706.47;12863251;22;97125;-84
2022/12/27 17:00:41;;;;;;;22.63;14.75;;;;;;;15.83;83.61;101698.00;12863003;22;97257;-84
2022/12/27 17:05:49;;;;;;;17.95;12.63;;;;;;;15.83;82.89;101695.34;12862226;22;96607;-84
2022/12/27 17:11:29;;;;;;;19.77;12.73;;;;;;;15.77;82.84;101710.63;12862450;22;97202;-84
2022/12/27 17:16:41;;;;;;;21.75;14.93;;;;;;;15.66;83.74;101707.53;12861379;22;96579;-84
2022/12/27 17:21:57;;;;;;;19.58;14.20;;;;;;;15.52;84.19;101701.88;12863352;22;96582;-84
2022/12/27 17:27:09;;;;;;;;;;;;;;;15.43;84.41;101702.19;12861790;22;96585;-84
2022/12/27 17:32:26;;;;;;;21.65;14.18;;;;;;;15.43;84.31;101704.84;12857815;22;98905;-87
2022/12/27 17:37:41;;;;;;;21.58;13.38;;;;;;;15.41;84.04;101709.34;12858394;22;96855;-84
2022/12/27 17:48:27;;;;;;;29.05;17.23;;;;;;;15.33;84.19;101708.75;12862699;22;96764;-82
